createdAt,value
2023-12-18T00:00:26.137Z,91.15
2023-12-18T00:02:52.662Z,91.01
2023-12-18T00:05:19.402Z,91.63
2023-12-18T00:07:45.924Z,91.87
2023-12-18T00:10:12.507Z,91.27
2023-12-18T00:12:39.239Z,91.30
2023-12-18T00:15:08.216Z,91.37
2023-12-18T00:17:34.939Z,91.79
2023-12-18T00:20:04.497Z,91.64
2023-12-18T00:22:32.009Z,91.83
2023-12-18T00:24:58.706Z,91.76
2023-12-18T00:27:25.253Z,92.11
2023-12-18T00:29:51.853Z,91.96
2023-12-18T00:32:18.332Z,91.46
2023-12-18T00:34:44.922Z,91.49
2023-12-18T00:37:12.329Z,91.11
2023-12-18T00:39:38.963Z,91.55
2023-12-18T00:42:05.779Z,90.85
2023-12-18T00:44:32.361Z,91.00
2023-12-18T00:46:58.865Z,91.68
2023-12-18T00:49:28.841Z,91.63
2023-12-18T00:51:56.585Z,91.53
2023-12-18T00:54:23.222Z,90.96
2023-12-18T00:56:50.119Z,90.87
2023-12-18T00:59:16.710Z,91.85
2023-12-18T01:01:43.607Z,91.37
2023-12-18T01:04:10.353Z,91.41
2023-12-18T01:06:37.322Z,91.02
2023-12-18T01:09:04.470Z,91.35
2023-12-18T01:11:30.948Z,91.16
2023-12-18T01:13:57.470Z,90.81
2023-12-18T01:16:24.142Z,90.62
2023-12-18T01:18:51.128Z,90.58
2023-12-18T01:21:17.711Z,90.56
2023-12-18T01:23:44.332Z,90.44
2023-12-18T01:26:10.835Z,90.23
2023-12-18T01:28:37.475Z,90.20
2023-12-18T01:31:04.333Z,90.31
2023-12-18T01:33:31.187Z,90.29
2023-12-18T01:35:57.824Z,90.30
2023-12-18T01:38:24.315Z,90.56
2023-12-18T01:40:50.933Z,90.15
2023-12-18T01:43:25.222Z,90.21
2023-12-18T01:46:04.461Z,90.32
2023-12-18T01:48:32.879Z,90.29
2023-12-18T01:51:01.018Z,89.68
2023-12-18T01:53:34.593Z,89.82
2023-12-18T01:56:02.786Z,90.07
2023-12-18T01:58:32.841Z,89.78
2023-12-18T02:01:00.816Z,89.66
2023-12-18T02:03:30.074Z,89.47
2023-12-18T02:05:57.913Z,89.31
2023-12-18T02:08:25.551Z,90.05
2023-12-18T02:10:52.614Z,89.99
2023-12-18T02:13:19.284Z,89.46
2023-12-18T02:15:46.173Z,89.95
2023-12-18T02:18:12.803Z,90.15
2023-12-18T02:20:42.883Z,90.11
2023-12-18T02:23:10.633Z,90.24
2023-12-18T02:25:37.245Z,90.51
2023-12-18T02:28:08.050Z,90.24
2023-12-18T02:30:34.911Z,89.78
2023-12-18T02:33:01.851Z,89.94
2023-12-18T02:35:28.647Z,90.17
2023-12-18T02:37:55.258Z,90.40
2023-12-18T02:40:22.366Z,90.28
2023-12-18T02:42:48.907Z,89.85
2023-12-18T02:45:15.614Z,90.72
2023-12-18T02:47:42.444Z,90.68
2023-12-18T02:50:09.641Z,91.03
2023-12-18T02:52:36.228Z,91.03
2023-12-18T02:55:03.028Z,91.11
2023-12-18T02:57:29.629Z,91.13
2023-12-18T02:59:56.152Z,91.26
2023-12-18T03:02:22.766Z,91.47
2023-12-18T03:04:49.289Z,91.34
2023-12-18T03:07:16.008Z,90.99
2023-12-18T03:09:42.559Z,90.99
2023-12-18T03:12:09.188Z,91.02
2023-12-18T03:14:35.749Z,90.90
2023-12-18T03:17:02.402Z,91.24
2023-12-18T03:19:28.978Z,91.57
2023-12-18T03:21:55.627Z,91.47
2023-12-18T03:24:24.061Z,91.32
2023-12-18T03:26:50.810Z,91.55
2023-12-18T03:29:17.374Z,91.43
2023-12-18T03:31:43.852Z,91.54
2023-12-18T03:34:10.651Z,91.15
2023-12-18T03:36:37.415Z,91.62
2023-12-18T03:39:04.229Z,91.51
2023-12-18T03:41:30.936Z,91.85
2023-12-18T03:43:57.599Z,91.27
2023-12-18T03:46:24.710Z,91.67
2023-12-18T03:48:51.337Z,91.87
2023-12-18T03:51:17.989Z,91.61
2023-12-18T03:53:44.561Z,91.74
2023-12-18T03:56:11.151Z,91.98
2023-12-18T03:58:38.162Z,91.04
2023-12-18T04:01:05.299Z,91.27
2023-12-18T04:03:34.494Z,91.17
2023-12-18T04:06:01.746Z,91.81
2023-12-18T04:08:28.330Z,91.18
2023-12-18T04:10:54.917Z,91.36
2023-12-18T04:13:21.543Z,91.45
2023-12-18T04:15:48.072Z,91.38
2023-12-18T04:18:14.719Z,90.94
2023-12-18T04:20:41.244Z,91.33
2023-12-18T04:23:07.972Z,90.81
2023-12-18T04:25:35.563Z,91.14
2023-12-18T04:28:02.174Z,91.21
2023-12-18T04:30:28.849Z,90.76
2023-12-18T04:32:55.482Z,90.95
2023-12-18T04:35:22.197Z,90.95
2023-12-18T04:37:48.996Z,91.13
2023-12-18T04:40:15.806Z,91.03
2023-12-18T04:42:42.685Z,91.05
2023-12-18T04:45:10.412Z,91.02
2023-12-18T04:47:37.094Z,90.85
2023-12-18T04:50:04.078Z,91.05
2023-12-18T04:52:30.713Z,91.06
2023-12-18T04:54:57.276Z,90.56
2023-12-18T04:57:23.808Z,90.29
2023-12-18T04:59:50.827Z,90.22
2023-12-18T05:02:17.333Z,90.19
2023-12-18T05:04:44.562Z,90.33
2023-12-18T05:07:13.342Z,90.65
2023-12-18T05:09:40.566Z,90.74
2023-12-18T05:12:07.765Z,90.81
2023-12-18T05:14:34.557Z,91.01
2023-12-18T05:17:01.153Z,90.78
2023-12-18T05:19:27.822Z,90.73
2023-12-18T05:21:54.463Z,90.80
2023-12-18T05:24:21.036Z,90.66
2023-12-18T05:26:47.811Z,90.95
2023-12-18T05:29:14.377Z,91.25
2023-12-18T05:31:40.997Z,90.70
2023-12-18T05:34:07.653Z,91.07
2023-12-18T05:36:34.286Z,91.14
2023-12-18T05:39:00.799Z,91.34
2023-12-18T05:41:27.315Z,91.00
2023-12-18T05:43:53.772Z,91.48
2023-12-18T05:46:20.390Z,91.39
2023-12-18T05:48:48.026Z,91.48
2023-12-18T05:51:22.179Z,91.48
2023-12-18T05:53:48.831Z,90.87
2023-12-18T05:56:16.303Z,91.56
2023-12-18T05:58:42.899Z,91.58
2023-12-18T06:01:10.080Z,91.18
2023-12-18T06:03:36.637Z,91.20
2023-12-18T06:06:03.351Z,91.54
2023-12-18T06:08:29.893Z,91.85
2023-12-18T06:10:56.510Z,91.65
2023-12-18T06:13:23.026Z,91.53
2023-12-18T06:15:49.604Z,91.34
2023-12-18T06:18:16.263Z,91.60
2023-12-18T06:20:42.987Z,91.16
2023-12-18T06:23:09.550Z,91.64
2023-12-18T06:25:36.092Z,91.81
2023-12-18T06:28:02.726Z,92.17
2023-12-18T06:30:29.561Z,92.33
2023-12-18T06:32:56.338Z,92.44
2023-12-18T06:35:23.453Z,91.97
2023-12-18T06:37:50.207Z,91.92
2023-12-18T06:40:16.968Z,91.18
2023-12-18T06:42:43.980Z,91.30
2023-12-18T06:45:10.970Z,91.94
2023-12-18T06:47:37.554Z,91.64
2023-12-18T06:50:04.366Z,91.84
2023-12-18T06:52:30.928Z,91.85
2023-12-18T06:54:57.522Z,92.02
2023-12-18T06:57:24.123Z,92.13
2023-12-18T06:59:50.733Z,91.82
2023-12-18T07:02:17.390Z,91.94
2023-12-18T07:04:43.915Z,91.58
2023-12-18T07:07:10.560Z,91.66
2023-12-18T07:09:37.283Z,91.75
2023-12-18T07:12:04.066Z,91.59
2023-12-18T07:14:30.746Z,91.97
2023-12-18T07:16:57.381Z,91.44
2023-12-18T07:19:24.236Z,91.39
2023-12-18T07:21:50.905Z,91.49
2023-12-18T07:24:18.317Z,91.63
2023-12-18T07:26:44.984Z,91.22
2023-12-18T07:29:11.523Z,91.42
2023-12-18T07:31:38.252Z,91.06
2023-12-18T07:34:05.048Z,91.25
2023-12-18T07:36:45.107Z,91.32
2023-12-18T07:39:11.647Z,91.35
2023-12-18T07:41:38.156Z,91.33
2023-12-18T07:44:04.684Z,91.03
2023-12-18T07:46:31.154Z,91.28
2023-12-18T07:48:57.784Z,91.20
2023-12-18T07:51:24.439Z,91.25
2023-12-18T07:53:51.436Z,90.89
2023-12-18T07:56:17.902Z,91.10
2023-12-18T07:58:44.404Z,91.35
2023-12-18T08:01:11.034Z,91.59
2023-12-18T08:03:37.837Z,91.44
2023-12-18T08:06:04.727Z,91.70
2023-12-18T08:08:31.332Z,91.80
2023-12-18T08:10:57.964Z,91.37
2023-12-18T08:13:24.706Z,91.60
2023-12-18T08:15:51.517Z,91.89
2023-12-18T08:18:18.248Z,91.48
2023-12-18T08:20:45.149Z,91.65
2023-12-18T08:23:11.727Z,91.72
2023-12-18T08:25:38.311Z,91.65
2023-12-18T08:28:05.202Z,91.75
2023-12-18T08:30:31.984Z,91.61
2023-12-18T08:32:59.402Z,92.24
2023-12-18T08:35:25.936Z,91.96
2023-12-18T08:37:52.363Z,92.13
2023-12-18T08:40:18.829Z,92.24
2023-12-18T08:42:45.874Z,92.28
2023-12-18T08:45:12.773Z,91.91
2023-12-18T08:47:39.423Z,91.97
2023-12-18T08:50:06.243Z,92.07
2023-12-18T08:52:33.085Z,92.62
2023-12-18T08:54:59.558Z,92.11
2023-12-18T08:57:26.135Z,92.53
2023-12-18T08:59:53.077Z,92.15
2023-12-18T09:02:19.761Z,92.18
2023-12-18T09:04:46.692Z,92.39
2023-12-18T09:07:13.743Z,92.34
2023-12-18T09:09:41.286Z,92.48
2023-12-18T09:12:08.543Z,92.67
2023-12-18T09:14:35.315Z,92.50
2023-12-18T09:17:01.889Z,92.47
2023-12-18T09:19:28.590Z,92.54
2023-12-18T09:21:55.147Z,92.45
2023-12-18T09:24:21.663Z,92.75
2023-12-18T09:26:48.261Z,92.51
2023-12-18T09:29:15.096Z,92.32
2023-12-18T09:31:41.648Z,92.49
2023-12-18T09:34:08.391Z,92.32
2023-12-18T09:36:35.227Z,92.36
2023-12-18T09:39:01.699Z,92.14
2023-12-18T09:41:28.254Z,91.92
2023-12-18T09:43:55.861Z,92.43
2023-12-18T09:46:23.664Z,92.61
2023-12-18T09:48:51.316Z,92.64
2023-12-18T09:51:21.727Z,92.41
2023-12-18T09:53:50.181Z,92.21
2023-12-18T09:56:18.744Z,92.11
2023-12-18T09:58:47.051Z,92.29
2023-12-18T10:01:14.604Z,92.33
2023-12-18T10:03:42.249Z,92.42
2023-12-18T10:06:09.961Z,92.49
2023-12-18T10:08:36.865Z,91.85
2023-12-18T10:11:04.593Z,92.44
2023-12-18T10:13:31.073Z,92.04
2023-12-18T10:15:58.574Z,92.10
2023-12-18T10:18:25.660Z,92.12
2023-12-18T10:20:53.125Z,91.90
2023-12-18T10:23:19.612Z,91.97
2023-12-18T10:25:46.165Z,92.28
2023-12-18T10:28:14.222Z,91.77
2023-12-18T10:30:41.108Z,91.75
2023-12-18T10:33:11.722Z,91.83
2023-12-18T10:35:39.772Z,91.87
2023-12-18T10:38:07.029Z,92.17
2023-12-18T10:40:33.840Z,91.69
2023-12-18T10:43:24.236Z,91.88
2023-12-18T10:45:54.658Z,91.84
2023-12-18T10:48:21.703Z,91.66
2023-12-18T10:50:55.236Z,91.69
2023-12-18T10:53:22.440Z,92.20
2023-12-18T10:55:50.026Z,91.48
2023-12-18T10:58:18.341Z,91.27
2023-12-18T11:00:49.856Z,91.31
2023-12-18T11:03:19.642Z,92.02
2023-12-18T11:05:49.301Z,91.72
2023-12-18T11:08:15.906Z,92.27
2023-12-18T11:10:42.942Z,92.03
2023-12-18T11:13:18.785Z,91.90
2023-12-18T11:15:59.357Z,92.17
2023-12-18T11:18:52.451Z,92.29
2023-12-18T11:21:19.369Z,92.46
2023-12-18T11:23:56.114Z,92.07
2023-12-18T11:26:31.360Z,92.36
2023-12-18T11:28:59.700Z,92.62
2023-12-18T11:31:26.247Z,92.42
2023-12-18T11:34:03.251Z,92.46
2023-12-18T11:36:30.066Z,92.69
2023-12-18T11:38:58.417Z,92.31
2023-12-18T11:41:42.913Z,92.53
2023-12-18T11:44:12.382Z,92.48
2023-12-18T11:46:39.417Z,92.01
2023-12-18T11:51:36.390Z,92.54
2023-12-18T11:54:03.344Z,92.21
2023-12-18T11:56:42.196Z,92.31
2023-12-18T11:59:09.407Z,92.36
2023-12-18T12:01:37.320Z,92.28
2023-12-18T12:04:05.993Z,92.58
2023-12-18T12:06:33.299Z,92.66
2023-12-18T12:08:59.857Z,92.72
2023-12-18T12:11:26.642Z,92.43
2023-12-18T12:13:56.336Z,92.52
2023-12-18T12:16:24.782Z,92.63
2023-12-18T12:18:52.646Z,92.52
2023-12-18T12:21:19.688Z,92.80
2023-12-18T12:23:48.405Z,92.42
2023-12-18T12:26:21.666Z,92.93
2023-12-18T12:28:49.694Z,92.68
2023-12-18T12:31:18.973Z,92.47
2023-12-18T12:33:47.147Z,92.33
2023-12-18T12:36:18.680Z,92.13
2023-12-18T12:38:45.665Z,92.02
2023-12-18T12:41:13.145Z,92.05
2023-12-18T12:43:40.159Z,92.40
2023-12-18T12:46:07.252Z,91.98
2023-12-18T12:48:36.839Z,91.92
2023-12-18T12:51:04.136Z,91.81
2023-12-18T12:53:33.230Z,91.71
2023-12-18T12:56:00.548Z,91.60
2023-12-18T12:58:27.194Z,91.71
2023-12-18T13:00:53.792Z,91.77
2023-12-18T13:03:20.635Z,91.66
2023-12-18T13:05:48.349Z,92.20
2023-12-18T13:08:14.885Z,91.85
2023-12-18T13:10:41.343Z,91.14
2023-12-18T13:13:09.069Z,91.39
2023-12-18T13:15:36.686Z,91.30
2023-12-18T13:18:03.603Z,91.59
2023-12-18T13:20:30.321Z,91.28
2023-12-18T13:22:57.446Z,91.34
2023-12-18T13:25:24.037Z,91.33
2023-12-18T13:27:51.036Z,90.89
2023-12-18T13:30:17.844Z,91.38
2023-12-18T13:32:45.078Z,91.49
2023-12-18T13:35:12.121Z,91.41
2023-12-18T13:37:40.518Z,91.50
2023-12-18T13:40:07.966Z,91.38
2023-12-18T13:42:34.546Z,91.12
2023-12-18T13:45:02.985Z,91.51
2023-12-18T13:47:29.964Z,91.72
2023-12-18T13:49:56.567Z,91.44
2023-12-18T13:52:23.292Z,91.92
2023-12-18T13:54:50.342Z,91.90
2023-12-18T13:57:17.399Z,91.36
2023-12-18T13:59:44.125Z,91.55
2023-12-18T14:02:10.648Z,92.19
2023-12-18T14:04:37.460Z,91.67
2023-12-18T14:07:04.331Z,91.96
2023-12-18T14:09:30.878Z,91.89
2023-12-18T14:11:58.984Z,92.10
2023-12-18T14:14:25.562Z,92.28
2023-12-18T14:16:52.226Z,91.92
2023-12-18T14:19:19.125Z,91.96
2023-12-18T14:21:46.247Z,92.06
2023-12-18T14:24:12.968Z,92.31
2023-12-18T14:26:39.636Z,92.14
2023-12-18T14:29:06.149Z,92.24
2023-12-18T14:31:33.520Z,91.95
2023-12-18T14:34:00.344Z,91.86
2023-12-18T14:36:27.508Z,91.94
2023-12-18T14:38:54.551Z,91.97
2023-12-18T14:41:21.326Z,92.02
2023-12-18T14:43:48.038Z,92.32
2023-12-18T14:46:17.008Z,92.17
2023-12-18T14:48:44.311Z,92.62
2023-12-18T14:51:11.722Z,92.42
2023-12-18T14:53:38.569Z,92.10
2023-12-18T14:56:05.860Z,92.47
2023-12-18T14:58:32.368Z,92.37
2023-12-18T15:00:59.072Z,92.55
2023-12-18T15:03:25.722Z,92.78
2023-12-18T15:05:52.295Z,92.78
2023-12-18T15:08:18.830Z,92.83
2023-12-18T15:10:45.385Z,92.16
2023-12-18T15:13:13.420Z,92.02
2023-12-18T15:15:40.345Z,92.09
2023-12-18T15:18:07.517Z,92.00
2023-12-18T15:20:34.145Z,92.46
2023-12-18T15:23:01.726Z,91.82
2023-12-18T15:25:28.324Z,92.01
2023-12-18T15:27:56.402Z,91.72
2023-12-18T15:30:24.241Z,91.78
2023-12-18T15:32:51.120Z,91.99
2023-12-18T15:35:17.844Z,91.86
2023-12-18T15:37:44.830Z,91.76
2023-12-18T15:40:11.856Z,91.62
2023-12-18T15:42:40.416Z,91.95
2023-12-18T15:45:08.027Z,91.72
2023-12-18T15:47:34.726Z,91.86
2023-12-18T15:50:01.624Z,91.42
2023-12-18T15:52:28.431Z,91.54
2023-12-18T15:54:54.991Z,91.42
2023-12-18T15:57:25.106Z,91.45
2023-12-18T15:59:52.153Z,91.07
2023-12-18T16:02:19.470Z,90.97
2023-12-18T16:04:46.182Z,90.75
2023-12-18T16:07:13.716Z,90.77
2023-12-18T16:09:40.330Z,90.39
2023-12-18T16:12:07.356Z,90.69
2023-12-18T16:14:35.590Z,90.80
2023-12-18T16:17:03.398Z,90.94
2023-12-18T16:19:30.062Z,91.27
2023-12-18T16:21:56.754Z,91.25
2023-12-18T16:24:23.342Z,91.55
2023-12-18T16:26:50.033Z,91.52
2023-12-18T16:29:16.521Z,91.61
2023-12-18T16:31:43.055Z,91.52
2023-12-18T16:34:10.925Z,91.55
2023-12-18T16:36:37.601Z,91.36
2023-12-18T16:39:04.694Z,91.48
2023-12-18T16:41:32.570Z,91.43
2023-12-18T16:43:59.459Z,91.37
2023-12-18T16:46:32.366Z,91.53
2023-12-18T16:49:03.957Z,91.58
2023-12-18T16:51:31.089Z,91.92
2023-12-18T16:53:57.703Z,91.78
2023-12-18T16:56:24.177Z,91.42
2023-12-18T16:58:50.690Z,91.70
2023-12-18T17:01:17.495Z,92.24
2023-12-18T17:03:44.214Z,91.73
2023-12-18T17:06:10.787Z,91.31
2023-12-18T17:08:37.354Z,91.48
2023-12-18T17:11:04.051Z,91.78
2023-12-18T17:13:30.585Z,91.97
2023-12-18T17:15:57.105Z,91.74
2023-12-18T17:18:23.766Z,91.60
2023-12-18T17:20:50.429Z,91.90
2023-12-18T17:23:16.972Z,91.73
2023-12-18T17:25:43.495Z,91.61
2023-12-18T17:28:10.032Z,91.91
2023-12-18T17:30:36.624Z,92.01
2023-12-18T17:33:06.038Z,91.85
2023-12-18T17:35:32.886Z,92.29
2023-12-18T17:37:59.455Z,92.13
2023-12-18T17:40:26.016Z,92.10
2023-12-18T17:42:52.605Z,92.75
2023-12-18T17:45:19.999Z,92.60
2023-12-18T17:47:47.720Z,92.68
2023-12-18T17:50:14.545Z,92.73
2023-12-18T17:52:41.772Z,92.87
2023-12-18T17:55:09.711Z,92.45
2023-12-18T17:57:36.266Z,92.30
2023-12-18T18:00:03.857Z,92.65
2023-12-18T18:02:30.500Z,91.94
2023-12-18T18:04:56.974Z,92.14
2023-12-18T18:07:23.674Z,91.92
2023-12-18T18:09:50.343Z,91.97
2023-12-18T18:12:16.896Z,92.17
2023-12-18T18:14:43.753Z,92.12
2023-12-18T18:17:10.179Z,92.36
2023-12-18T18:19:36.738Z,92.32
2023-12-18T18:22:04.460Z,92.35
2023-12-18T18:24:31.084Z,92.42
2023-12-18T18:27:08.577Z,92.21
2023-12-18T18:29:37.354Z,91.98
2023-12-18T18:32:04.699Z,92.22
2023-12-18T18:34:31.874Z,91.99
2023-12-18T18:36:58.639Z,92.12
2023-12-18T18:39:26.723Z,91.67
2023-12-18T18:41:53.940Z,92.02
2023-12-18T18:44:20.674Z,92.05
2023-12-18T18:46:50.970Z,92.09
2023-12-18T18:49:17.742Z,91.90
2023-12-18T18:51:44.382Z,92.24
2023-12-18T18:54:11.043Z,91.94
2023-12-18T18:56:37.579Z,92.15
2023-12-18T18:59:04.119Z,91.85
2023-12-18T19:01:30.928Z,91.63
2023-12-18T19:03:57.691Z,91.74
2023-12-18T19:06:24.266Z,91.75
2023-12-18T19:08:50.969Z,91.67
2023-12-18T19:11:17.504Z,91.57
2023-12-18T19:13:44.020Z,92.10
2023-12-18T19:16:13.534Z,91.62
2023-12-18T19:18:40.156Z,91.16
2023-12-18T19:21:06.900Z,90.41
2023-12-18T19:23:36.029Z,90.36
2023-12-18T19:26:03.055Z,90.65
2023-12-18T19:28:29.629Z,90.63
2023-12-18T19:30:56.578Z,91.30
2023-12-18T19:33:23.385Z,91.16
2023-12-18T19:35:51.595Z,91.56
2023-12-18T19:38:22.029Z,91.48
2023-12-18T19:40:48.723Z,91.74
2023-12-18T19:43:15.257Z,91.81
2023-12-18T19:45:42.113Z,92.17
2023-12-18T19:48:08.781Z,92.13
2023-12-18T19:50:38.451Z,92.31
2023-12-18T19:53:05.760Z,91.90
2023-12-18T19:55:32.613Z,91.92
2023-12-18T19:58:00.398Z,92.01
2023-12-18T20:00:27.812Z,92.60
2023-12-18T20:02:54.358Z,92.69
2023-12-18T20:05:20.827Z,92.48
2023-12-18T20:07:47.346Z,92.46
2023-12-18T20:10:14.009Z,92.18
2023-12-18T20:12:40.678Z,92.13
2023-12-18T20:15:08.133Z,92.22
2023-12-18T20:17:35.321Z,92.20
2023-12-18T20:20:02.144Z,92.07
2023-12-18T20:22:28.694Z,92.17
2023-12-18T20:24:55.297Z,92.32
2023-12-18T20:27:21.951Z,92.51
2023-12-18T20:29:49.312Z,92.20
2023-12-18T20:32:16.184Z,92.08
2023-12-18T20:34:42.989Z,92.04
2023-12-18T20:37:11.037Z,92.30
2023-12-18T20:39:37.647Z,92.31
2023-12-18T20:42:04.303Z,92.20
2023-12-18T20:44:30.830Z,92.47
2023-12-18T20:46:58.749Z,92.30
2023-12-18T20:49:27.389Z,92.02
2023-12-18T20:51:56.264Z,92.08
2023-12-18T20:54:23.045Z,91.93
2023-12-18T20:56:49.648Z,91.70
2023-12-18T20:59:16.221Z,91.56
2023-12-18T21:01:44.820Z,91.97
2023-12-18T21:04:11.566Z,91.74
2023-12-18T21:06:38.661Z,91.97
2023-12-18T21:09:05.375Z,91.80
2023-12-18T21:11:31.969Z,91.57
2023-12-18T21:13:58.630Z,91.38
2023-12-18T21:16:25.262Z,91.78
2023-12-18T21:18:52.117Z,91.40
2023-12-18T21:21:20.717Z,91.43
2023-12-18T21:23:47.334Z,91.68
2023-12-18T21:26:16.032Z,91.19
2023-12-18T21:28:43.411Z,91.41
2023-12-18T21:31:11.399Z,91.63
2023-12-18T21:33:38.449Z,91.67
2023-12-18T21:36:05.798Z,91.35
2023-12-18T21:38:32.796Z,91.19
2023-12-18T21:41:01.775Z,91.76
2023-12-18T21:43:29.958Z,91.14
2023-12-18T21:45:57.961Z,91.85
2023-12-18T21:48:24.998Z,91.31
2023-12-18T21:50:51.690Z,91.66
2023-12-18T21:53:19.958Z,91.52
2023-12-18T21:55:47.339Z,91.64
2023-12-18T21:58:14.135Z,91.84
2023-12-18T22:00:41.192Z,91.81
2023-12-18T22:03:07.877Z,92.02
2023-12-18T22:05:34.454Z,91.64
2023-12-18T22:08:01.093Z,91.72
2023-12-18T22:10:28.010Z,92.00
2023-12-18T22:12:54.510Z,91.88
2023-12-18T22:15:21.043Z,92.18
2023-12-18T22:17:49.890Z,92.41
2023-12-18T22:20:16.550Z,92.62
2023-12-18T22:22:43.302Z,92.58
2023-12-18T22:25:10.260Z,92.25
2023-12-18T22:27:36.839Z,92.74
2023-12-18T22:30:04.948Z,92.60
2023-12-18T22:32:31.971Z,92.87
2023-12-18T22:34:58.706Z,92.28
2023-12-18T22:37:25.486Z,92.62
2023-12-18T22:39:52.091Z,92.97
2023-12-18T22:42:18.779Z,92.78
2023-12-18T22:44:45.649Z,92.64
2023-12-18T22:47:12.923Z,92.98
2023-12-18T22:49:39.562Z,92.81
2023-12-18T22:52:06.424Z,92.50
2023-12-18T22:54:33.078Z,92.81
2023-12-18T22:56:59.589Z,92.80
2023-12-18T22:59:26.112Z,93.30
2023-12-18T23:01:53.047Z,93.33
2023-12-18T23:04:19.682Z,93.34
2023-12-18T23:06:46.851Z,93.31
2023-12-18T23:09:16.879Z,93.15
2023-12-18T23:11:43.409Z,92.95
2023-12-18T23:14:10.142Z,93.31
2023-12-18T23:16:36.636Z,92.99
2023-12-18T23:19:03.474Z,92.57
2023-12-18T23:21:31.000Z,92.93
2023-12-18T23:24:01.041Z,92.80
2023-12-18T23:26:27.856Z,92.93
2023-12-18T23:28:55.167Z,92.68
2023-12-18T23:31:21.952Z,92.57
2023-12-18T23:33:49.120Z,92.61
2023-12-18T23:36:15.793Z,93.01
2023-12-18T23:38:42.467Z,92.53
2023-12-18T23:41:08.993Z,92.79
2023-12-18T23:43:35.485Z,92.63
2023-12-18T23:46:02.068Z,92.79
2023-12-18T23:48:28.848Z,92.98
2023-12-18T23:50:55.521Z,92.91
2023-12-18T23:53:22.360Z,92.40
2023-12-18T23:55:49.150Z,92.80
2023-12-18T23:58:17.818Z,92.38
